sensor_id;sensor_type;location;lat;lon;timestamp;pressure;altitude;pressure_sealevel;temperature;humidity
37778;BME280;23615;51.506;7.678;2023-07-09T00:02:17;100169.50;;;22.33;74.01
37778;BME280;23615;51.506;7.678;2023-07-09T00:04:43;100160.13;;;22.26;73.76
37778;BME280;23615;51.506;7.678;2023-07-09T00:07:17;100161.81;;;22.22;73.77
37778;BME280;23615;51.506;7.678;2023-07-09T00:09:42;100157.50;;;22.21;73.88
37778;BME280;23615;51.506;7.678;2023-07-09T00:12:16;100157.56;;;22.16;74.17
37778;BME280;23615;51.506;7.678;2023-07-09T00:14:42;100164.09;;;22.15;74.35
37778;BME280;23615;51.506;7.678;2023-07-09T00:17:10;100160.09;;;22.12;75.24
37778;BME280;23615;51.506;7.678;2023-07-09T00:19:36;100164.78;;;22.07;75.99
37778;BME280;23615;51.506;7.678;2023-07-09T00:22:01;100162.19;;;21.96;76.38
37778;BME280;23615;51.506;7.678;2023-07-09T00:24:27;100161.75;;;21.89;76.56
37778;BME280;23615;51.506;7.678;2023-07-09T00:26:52;100165.56;;;21.88;76.67
37778;BME280;23615;51.506;7.678;2023-07-09T00:29:18;100159.72;;;21.81;77.05
37778;BME280;23615;51.506;7.678;2023-07-09T00:31:43;100165.72;;;21.78;76.97
37778;BME280;23615;51.506;7.678;2023-07-09T00:34:10;100173.44;;;21.71;77.59
37778;BME280;23615;51.506;7.678;2023-07-09T00:36:39;100174.09;;;21.63;77.81
37778;BME280;23615;51.506;7.678;2023-07-09T00:39:16;100169.84;;;21.57;77.98
37778;BME280;23615;51.506;7.678;2023-07-09T00:41:43;100169.91;;;21.52;77.82
37778;BME280;23615;51.506;7.678;2023-07-09T00:44:30;100166.19;;;21.48;77.92
37778;BME280;23615;51.506;7.678;2023-07-09T00:49:34;100170.31;;;21.40;77.73
37778;BME280;23615;51.506;7.678;2023-07-09T00:52:09;100169.31;;;21.36;77.86
37778;BME280;23615;51.506;7.678;2023-07-09T00:54:43;100172.59;;;21.33;77.99
37778;BME280;23615;51.506;7.678;2023-07-09T00:57:16;100175.44;;;21.23;78.11
37778;BME280;23615;51.506;7.678;2023-07-09T00:59:49;100168.44;;;21.17;78.21
37778;BME280;23615;51.506;7.678;2023-07-09T01:02:16;100169.06;;;21.09;78.90
37778;BME280;23615;51.506;7.678;2023-07-09T01:04:51;100166.91;;;21.06;78.80
37778;BME280;23615;51.506;7.678;2023-07-09T01:07:18;100169.63;;;21.06;78.61
37778;BME280;23615;51.506;7.678;2023-07-09T01:09:45;100173.22;;;21.01;78.94
37778;BME280;23615;51.506;7.678;2023-07-09T01:12:10;100180.84;;;20.99;78.91
37778;BME280;23615;51.506;7.678;2023-07-09T01:14:36;100174.38;;;20.95;79.12
37778;BME280;23615;51.506;7.678;2023-07-09T01:17:06;100181.47;;;20.91;79.27
37778;BME280;23615;51.506;7.678;2023-07-09T01:19:41;100174.47;;;20.85;79.38
37778;BME280;23615;51.506;7.678;2023-07-09T01:22:14;100179.13;;;20.84;79.47
37778;BME280;23615;51.506;7.678;2023-07-09T01:25:02;100185.63;;;20.83;79.34
37778;BME280;23615;51.506;7.678;2023-07-09T01:27:34;100186.75;;;20.77;79.41
37778;BME280;23615;51.506;7.678;2023-07-09T01:30:02;100185.13;;;20.76;79.33
37778;BME280;23615;51.506;7.678;2023-07-09T01:32:28;100187.34;;;20.74;79.52
37778;BME280;23615;51.506;7.678;2023-07-09T01:34:57;100190.63;;;20.71;79.80
37778;BME280;23615;51.506;7.678;2023-07-09T01:37:26;100189.56;;;20.67;80.09
37778;BME280;23615;51.506;7.678;2023-07-09T01:39:52;100185.53;;;20.65;80.28
37778;BME280;23615;51.506;7.678;2023-07-09T01:42:19;100178.50;;;20.64;80.09
37778;BME280;23615;51.506;7.678;2023-07-09T01:44:49;100178.06;;;20.51;80.62
37778;BME280;23615;51.506;7.678;2023-07-09T01:47:16;100175.97;;;20.43;81.10
37778;BME280;23615;51.506;7.678;2023-07-09T01:49:42;100180.38;;;20.39;80.88
37778;BME280;23615;51.506;7.678;2023-07-09T01:52:11;100183.63;;;20.36;80.81
37778;BME280;23615;51.506;7.678;2023-07-09T01:54:37;100189.06;;;20.36;80.63
37778;BME280;23615;51.506;7.678;2023-07-09T01:57:23;100179.31;;;20.35;80.61
37778;BME280;23615;51.506;7.678;2023-07-09T01:59:53;100186.88;;;20.38;80.19
37778;BME280;23615;51.506;7.678;2023-07-09T02:02:20;100175.50;;;20.36;80.51
37778;BME280;23615;51.506;7.678;2023-07-09T02:04:50;100174.13;;;20.34;80.72
37778;BME280;23615;51.506;7.678;2023-07-09T02:07:17;100179.34;;;20.30;80.75
37778;BME280;23615;51.506;7.678;2023-07-09T02:09:42;100178.25;;;20.26;80.70
37778;BME280;23615;51.506;7.678;2023-07-09T02:12:09;100177.53;;;20.15;81.15
37778;BME280;23615;51.506;7.678;2023-07-09T02:14:35;100184.31;;;20.13;80.92
37778;BME280;23615;51.506;7.678;2023-07-09T02:17:00;100182.41;;;20.18;80.36
37778;BME280;23615;51.506;7.678;2023-07-09T02:19:25;100180.44;;;20.24;79.70
37778;BME280;23615;51.506;7.678;2023-07-09T02:21:51;100175.59;;;20.21;79.99
37778;BME280;23615;51.506;7.678;2023-07-09T02:24:16;100168.31;;;20.16;80.42
37778;BME280;23615;51.506;7.678;2023-07-09T02:26:41;100170.50;;;20.14;80.59
37778;BME280;23615;51.506;7.678;2023-07-09T02:29:07;100169.19;;;20.12;80.74
37778;BME280;23615;51.506;7.678;2023-07-09T02:31:32;100177.59;;;20.10;80.68
37778;BME280;23615;51.506;7.678;2023-07-09T02:33:59;100177.31;;;20.07;81.12
37778;BME280;23615;51.506;7.678;2023-07-09T02:36:24;100173.59;;;20.03;81.67
37778;BME280;23615;51.506;7.678;2023-07-09T02:38:50;100179.56;;;20.00;81.78
37778;BME280;23615;51.506;7.678;2023-07-09T02:41:15;100186.34;;;19.97;81.91
37778;BME280;23615;51.506;7.678;2023-07-09T02:43:41;100187.94;;;19.98;81.46
37778;BME280;23615;51.506;7.678;2023-07-09T02:46:06;100192.03;;;19.96;81.75
37778;BME280;23615;51.506;7.678;2023-07-09T02:48:31;100195.00;;;19.94;81.59
37778;BME280;23615;51.506;7.678;2023-07-09T02:50:56;100193.94;;;19.95;81.41
37778;BME280;23615;51.506;7.678;2023-07-09T02:53:22;100189.91;;;19.93;81.19
37778;BME280;23615;51.506;7.678;2023-07-09T02:55:47;100188.56;;;19.90;81.19
37778;BME280;23615;51.506;7.678;2023-07-09T02:58:12;100199.66;;;19.89;81.00
37778;BME280;23615;51.506;7.678;2023-07-09T03:00:37;100191.00;;;19.92;80.57
37778;BME280;23615;51.506;7.678;2023-07-09T03:03:03;100196.34;;;19.97;80.08
37778;BME280;23615;51.506;7.678;2023-07-09T03:05:28;100192.22;;;20.04;79.86
37778;BME280;23615;51.506;7.678;2023-07-09T03:07:53;100195.75;;;20.05;79.47
37778;BME280;23615;51.506;7.678;2023-07-09T03:10:18;100204.16;;;20.03;80.04
37778;BME280;23615;51.506;7.678;2023-07-09T03:12:44;100204.16;;;20.03;80.18
37778;BME280;23615;51.506;7.678;2023-07-09T03:15:09;100203.34;;;20.08;79.88
37778;BME280;23615;51.506;7.678;2023-07-09T03:17:34;100201.16;;;20.10;79.41
37778;BME280;23615;51.506;7.678;2023-07-09T03:20:00;100206.81;;;20.13;79.43
37778;BME280;23615;51.506;7.678;2023-07-09T03:22:25;100207.88;;;20.12;79.52
37778;BME280;23615;51.506;7.678;2023-07-09T03:24:50;100214.94;;;20.13;79.69
37778;BME280;23615;51.506;7.678;2023-07-09T03:27:15;100209.56;;;20.08;79.57
37778;BME280;23615;51.506;7.678;2023-07-09T03:29:41;100217.94;;;20.12;79.52
37778;BME280;23615;51.506;7.678;2023-07-09T03:32:06;100218.16;;;20.15;79.26
37778;BME280;23615;51.506;7.678;2023-07-09T03:34:31;100221.94;;;20.20;79.07
37778;BME280;23615;51.506;7.678;2023-07-09T03:36:57;100224.06;;;20.28;78.47
37778;BME280;23615;51.506;7.678;2023-07-09T03:39:22;100222.97;;;20.29;78.78
37778;BME280;23615;51.506;7.678;2023-07-09T03:41:47;100230.56;;;20.27;78.62
37778;BME280;23615;51.506;7.678;2023-07-09T03:44:12;100237.03;;;20.31;78.41
37778;BME280;23615;51.506;7.678;2023-07-09T03:46:38;100229.19;;;20.34;78.20
37778;BME280;23615;51.506;7.678;2023-07-09T03:49:03;100232.09;;;20.43;78.26
37778;BME280;23615;51.506;7.678;2023-07-09T03:51:28;100234.56;;;20.39;78.50
37778;BME280;23615;51.506;7.678;2023-07-09T03:53:54;100229.72;;;20.36;78.71
37778;BME280;23615;51.506;7.678;2023-07-09T03:56:19;100237.03;;;20.36;78.87
37778;BME280;23615;51.506;7.678;2023-07-09T03:58:44;100230.78;;;20.35;79.22
37778;BME280;23615;51.506;7.678;2023-07-09T04:01:09;100232.13;;;20.33;78.93
37778;BME280;23615;51.506;7.678;2023-07-09T04:03:35;100232.69;;;20.35;78.98
37778;BME280;23615;51.506;7.678;2023-07-09T04:06:00;100235.41;;;20.35;79.07
37778;BME280;23615;51.506;7.678;2023-07-09T04:08:25;100234.84;;;20.38;78.82
37778;BME280;23615;51.506;7.678;2023-07-09T04:10:58;100229.16;;;20.39;78.99
37778;BME280;23615;51.506;7.678;2023-07-09T04:13:24;100230.72;;;20.45;78.80
37778;BME280;23615;51.506;7.678;2023-07-09T04:15:49;100236.63;;;20.52;78.55
37778;BME280;23615;51.506;7.678;2023-07-09T04:18:15;100229.56;;;20.51;79.01
37778;BME280;23615;51.506;7.678;2023-07-09T04:20:40;100236.63;;;20.52;78.98
37778;BME280;23615;51.506;7.678;2023-07-09T04:23:06;100235.53;;;20.53;79.11
37778;BME280;23615;51.506;7.678;2023-07-09T04:25:31;100234.97;;;20.57;79.30
37778;BME280;23615;51.506;7.678;2023-07-09T04:27:57;100236.06;;;20.56;79.11
37778;BME280;23615;51.506;7.678;2023-07-09T04:30:22;100239.78;;;20.65;79.03
37778;BME280;23615;51.506;7.678;2023-07-09T04:32:48;100237.88;;;20.65;79.27
37778;BME280;23615;51.506;7.678;2023-07-09T04:35:14;100239.50;;;20.66;79.74
37778;BME280;23615;51.506;7.678;2023-07-09T04:37:40;100238.38;;;20.67;79.64
37778;BME280;23615;51.506;7.678;2023-07-09T04:40:06;100236.19;;;20.69;79.35
37778;BME280;23615;51.506;7.678;2023-07-09T04:42:33;100246.19;;;20.74;79.49
37778;BME280;23615;51.506;7.678;2023-07-09T04:44:58;100241.81;;;20.78;79.42
37778;BME280;23615;51.506;7.678;2023-07-09T04:47:24;100252.63;;;20.83;79.36
37778;BME280;23615;51.506;7.678;2023-07-09T04:49:49;100255.56;;;20.86;79.40
37778;BME280;23615;51.506;7.678;2023-07-09T04:52:15;100247.91;;;20.94;79.08
37778;BME280;23615;51.506;7.678;2023-07-09T04:54:41;100258.19;;;20.97;78.91
37778;BME280;23615;51.506;7.678;2023-07-09T04:57:10;100255.72;;;21.00;78.83
37778;BME280;23615;51.506;7.678;2023-07-09T04:59:35;100257.06;;;21.03;78.91
37778;BME280;23615;51.506;7.678;2023-07-09T05:02:01;100258.34;;;21.05;79.14
37778;BME280;23615;51.506;7.678;2023-07-09T05:04:26;100262.94;;;21.10;79.23
37778;BME280;23615;51.506;7.678;2023-07-09T05:06:51;100259.94;;;21.11;79.42
37778;BME280;23615;51.506;7.678;2023-07-09T05:09:17;100261.78;;;21.16;79.40
37778;BME280;23615;51.506;7.678;2023-07-09T05:11:42;100256.63;;;21.19;79.50
37778;BME280;23615;51.506;7.678;2023-07-09T05:14:07;100252.22;;;21.23;79.30
37778;BME280;23615;51.506;7.678;2023-07-09T05:16:33;100260.91;;;21.25;79.27
37778;BME280;23615;51.506;7.678;2023-07-09T05:18:58;100254.78;;;21.39;78.61
37778;BME280;23615;51.506;7.678;2023-07-09T05:21:23;100264.53;;;21.40;79.11
37778;BME280;23615;51.506;7.678;2023-07-09T05:23:48;100262.34;;;21.42;79.18
37778;BME280;23615;51.506;7.678;2023-07-09T05:26:14;100260.69;;;21.46;79.14
37778;BME280;23615;51.506;7.678;2023-07-09T05:28:39;100264.94;;;21.52;79.03
37778;BME280;23615;51.506;7.678;2023-07-09T05:31:05;100260.03;;;21.54;78.90
37778;BME280;23615;51.506;7.678;2023-07-09T05:33:31;100259.16;;;21.58;79.04
37778;BME280;23615;51.506;7.678;2023-07-09T05:35:56;100261.53;;;21.65;79.30
37778;BME280;23615;51.506;7.678;2023-07-09T05:38:21;100251.75;;;21.64;79.56
37778;BME280;23615;51.506;7.678;2023-07-09T05:40:47;100261.16;;;21.72;79.04
37778;BME280;23615;51.506;7.678;2023-07-09T05:43:12;100258.69;;;21.75;79.33
37778;BME280;23615;51.506;7.678;2023-07-09T05:45:41;100259.41;;;21.81;78.87
37778;BME280;23615;51.506;7.678;2023-07-09T05:48:06;100261.56;;;21.84;79.27
37778;BME280;23615;51.506;7.678;2023-07-09T05:50:34;100271.25;;;21.90;79.37
37778;BME280;23615;51.506;7.678;2023-07-09T05:53:00;100265.72;;;21.95;79.28
37778;BME280;23615;51.506;7.678;2023-07-09T05:55:25;100265.72;;;22.00;78.97
37778;BME280;23615;51.506;7.678;2023-07-09T05:57:52;100270.25;;;22.05;78.84
37778;BME280;23615;51.506;7.678;2023-07-09T06:00:17;100274.25;;;22.12;78.39
37778;BME280;23615;51.506;7.678;2023-07-09T06:02:42;100270.63;;;22.17;78.56
37778;BME280;23615;51.506;7.678;2023-07-09T06:05:08;100276.50;;;22.24;78.62
37778;BME280;23615;51.506;7.678;2023-07-09T06:07:37;100279.97;;;22.29;78.59
37778;BME280;23615;51.506;7.678;2023-07-09T06:10:04;100279.16;;;22.29;78.72
37778;BME280;23615;51.506;7.678;2023-07-09T06:12:30;100275.97;;;22.40;79.31
37778;BME280;23615;51.506;7.678;2023-07-09T06:14:55;100277.53;;;22.47;78.92
37778;BME280;23615;51.506;7.678;2023-07-09T06:17:21;100277.66;;;22.55;78.88
37778;BME280;23615;51.506;7.678;2023-07-09T06:19:46;100278.59;;;22.64;78.53
37778;BME280;23615;51.506;7.678;2023-07-09T06:22:11;100271.44;;;22.68;78.42
37778;BME280;23615;51.506;7.678;2023-07-09T06:24:36;100275.13;;;22.77;78.27
37778;BME280;23615;51.506;7.678;2023-07-09T06:27:02;100277.47;;;22.84;77.52
37778;BME280;23615;51.506;7.678;2023-07-09T06:29:27;100271.13;;;22.89;78.27
37778;BME280;23615;51.506;7.678;2023-07-09T06:31:53;100273.78;;;22.94;78.32
37778;BME280;23615;51.506;7.678;2023-07-09T06:34:18;100275.28;;;23.00;78.47
37778;BME280;23615;51.506;7.678;2023-07-09T06:36:43;100271.88;;;23.08;78.28
37778;BME280;23615;51.506;7.678;2023-07-09T06:39:09;100272.19;;;23.20;78.29
37778;BME280;23615;51.506;7.678;2023-07-09T06:41:35;100272.38;;;23.24;79.18
37778;BME280;23615;51.506;7.678;2023-07-09T06:44:07;100277.94;;;23.32;79.17
37778;BME280;23615;51.506;7.678;2023-07-09T06:46:32;100279.94;;;23.40;78.79
37778;BME280;23615;51.506;7.678;2023-07-09T06:48:58;100274.94;;;23.47;78.86
37778;BME280;23615;51.506;7.678;2023-07-09T06:51:24;100271.84;;;23.54;79.37
37778;BME280;23615;51.506;7.678;2023-07-09T06:53:49;100274.13;;;23.61;79.50
37778;BME280;23615;51.506;7.678;2023-07-09T06:56:15;100272.63;;;23.68;78.88
37778;BME280;23615;51.506;7.678;2023-07-09T06:58:41;100275.75;;;23.75;78.44
37778;BME280;23615;51.506;7.678;2023-07-09T07:01:06;100281.47;;;23.87;78.11
37778;BME280;23615;51.506;7.678;2023-07-09T07:03:32;100273.28;;;24.01;78.07
37778;BME280;23615;51.506;7.678;2023-07-09T07:05:58;100275.28;;;24.09;78.02
37778;BME280;23615;51.506;7.678;2023-07-09T07:08:25;100274.03;;;24.15;77.86
37778;BME280;23615;51.506;7.678;2023-07-09T07:10:54;100271.31;;;24.29;77.47
37778;BME280;23615;51.506;7.678;2023-07-09T07:13:27;100280.19;;;24.35;77.30
37778;BME280;23615;51.506;7.678;2023-07-09T07:15:53;100276.03;;;24.37;77.40
37778;BME280;23615;51.506;7.678;2023-07-09T07:18:18;100282.00;;;24.39;77.47
37778;BME280;23615;51.506;7.678;2023-07-09T07:20:44;100273.97;;;24.43;78.31
37778;BME280;23615;51.506;7.678;2023-07-09T07:23:09;100275.16;;;24.50;77.72
37778;BME280;23615;51.506;7.678;2023-07-09T07:25:34;100274.25;;;24.55;77.35
37778;BME280;23615;51.506;7.678;2023-07-09T07:28:00;100271.06;;;24.61;77.68
37778;BME280;23615;51.506;7.678;2023-07-09T07:30:25;100267.28;;;24.71;78.17
37778;BME280;23615;51.506;7.678;2023-07-09T07:32:50;100270.06;;;24.80;78.64
37778;BME280;23615;51.506;7.678;2023-07-09T07:35:16;100267.06;;;24.90;78.64
37778;BME280;23615;51.506;7.678;2023-07-09T07:37:42;100269.56;;;25.00;78.21
37778;BME280;23615;51.506;7.678;2023-07-09T07:40:09;100269.63;;;25.09;77.77
37778;BME280;23615;51.506;7.678;2023-07-09T07:42:34;100273.03;;;25.23;77.77
37778;BME280;23615;51.506;7.678;2023-07-09T07:45:00;100277.59;;;25.36;77.06
37778;BME280;23615;51.506;7.678;2023-07-09T07:47:26;100272.97;;;25.45;77.44
37778;BME280;23615;51.506;7.678;2023-07-09T07:49:52;100270.47;;;25.57;77.91
37778;BME280;23615;51.506;7.678;2023-07-09T07:52:17;100281.13;;;25.67;78.67
37778;BME280;23615;51.506;7.678;2023-07-09T07:54:43;100277.75;;;25.79;78.69
37778;BME280;23615;51.506;7.678;2023-07-09T07:57:08;100276.66;;;25.89;79.02
37778;BME280;23615;51.506;7.678;2023-07-09T07:59:35;100275.72;;;25.93;78.54
37778;BME280;23615;51.506;7.678;2023-07-09T08:02:01;100273.44;;;26.04;78.54
37778;BME280;23615;51.506;7.678;2023-07-09T08:04:27;100276.69;;;26.15;78.96
37778;BME280;23615;51.506;7.678;2023-07-09T08:06:52;100267.34;;;26.24;79.31
37778;BME280;23615;51.506;7.678;2023-07-09T08:09:18;100265.63;;;26.28;78.69
37778;BME280;23615;51.506;7.678;2023-07-09T08:11:43;100274.31;;;26.39;77.73
37778;BME280;23615;51.506;7.678;2023-07-09T08:14:10;100268.50;;;26.49;76.70
37778;BME280;23615;51.506;7.678;2023-07-09T08:16:35;100269.31;;;26.58;75.76
37778;BME280;23615;51.506;7.678;2023-07-09T08:19:01;100268.13;;;26.68;75.22
37778;BME280;23615;51.506;7.678;2023-07-09T08:21:26;100265.88;;;26.70;75.47
37778;BME280;23615;51.506;7.678;2023-07-09T08:23:51;100261.19;;;26.88;75.59
37778;BME280;23615;51.506;7.678;2023-07-09T08:26:17;100263.47;;;26.94;75.84
37778;BME280;23615;51.506;7.678;2023-07-09T08:28:42;100256.50;;;26.97;74.15
37778;BME280;23615;51.506;7.678;2023-07-09T08:31:08;100254.22;;;27.07;73.26
37778;BME280;23615;51.506;7.678;2023-07-09T08:33:34;100264.03;;;27.17;73.09
37778;BME280;23615;51.506;7.678;2023-07-09T08:35:59;100266.72;;;27.26;73.47
37778;BME280;23615;51.506;7.678;2023-07-09T08:38:24;100260.41;;;27.34;72.76
37778;BME280;23615;51.506;7.678;2023-07-09T08:40:59;100252.75;;;27.57;71.55
37778;BME280;23615;51.506;7.678;2023-07-09T08:46:47;100250.97;;;27.81;72.15
37778;BME280;23615;51.506;7.678;2023-07-09T08:49:34;100246.72;;;27.92;72.23
37778;BME280;23615;51.506;7.678;2023-07-09T08:52:01;100246.63;;;28.01;69.39
37778;BME280;23615;51.506;7.678;2023-07-09T08:54:29;100239.81;;;28.07;68.83
37778;BME280;23615;51.506;7.678;2023-07-09T08:57:07;100238.78;;;28.20;68.29
37778;BME280;23615;51.506;7.678;2023-07-09T08:59:36;100235.16;;;28.28;66.66
37778;BME280;23615;51.506;7.678;2023-07-09T09:02:03;100230.72;;;28.36;67.30
37778;BME280;23615;51.506;7.678;2023-07-09T09:04:31;100232.22;;;28.46;66.20
37778;BME280;23615;51.506;7.678;2023-07-09T09:07:16;100235.03;;;28.58;64.78
37778;BME280;23615;51.506;7.678;2023-07-09T09:09:52;100230.34;;;28.71;66.24
37778;BME280;23615;51.506;7.678;2023-07-09T09:12:26;100233.97;;;28.83;66.66
37778;BME280;23615;51.506;7.678;2023-07-09T09:15:02;100230.00;;;28.93;64.44
37778;BME280;23615;51.506;7.678;2023-07-09T09:17:34;100236.28;;;29.06;65.31
37778;BME280;23615;51.506;7.678;2023-07-09T09:20:02;100231.03;;;29.13;68.08
37778;BME280;23615;51.506;7.678;2023-07-09T09:23:01;100237.13;;;29.30;68.81
37778;BME280;23615;51.506;7.678;2023-07-09T09:25:31;100239.44;;;29.41;67.06
37778;BME280;23615;51.506;7.678;2023-07-09T09:27:59;100231.28;;;29.56;68.25
37778;BME280;23615;51.506;7.678;2023-07-09T09:30:25;100230.94;;;29.58;65.26
37778;BME280;23615;51.506;7.678;2023-07-09T09:32:54;100227.28;;;29.66;63.26
37778;BME280;23615;51.506;7.678;2023-07-09T09:35:30;100231.81;;;29.86;63.76
37778;BME280;23615;51.506;7.678;2023-07-09T09:37:57;100230.91;;;29.94;64.58
37778;BME280;23615;51.506;7.678;2023-07-09T09:40:25;100225.81;;;30.08;63.74
37778;BME280;23615;51.506;7.678;2023-07-09T09:42:51;100223.38;;;30.19;64.91
37778;BME280;23615;51.506;7.678;2023-07-09T09:45:21;100225.72;;;30.33;65.42
37778;BME280;23615;51.506;7.678;2023-07-09T09:47:48;100228.31;;;30.41;63.73
37778;BME280;23615;51.506;7.678;2023-07-09T09:50:18;100225.53;;;30.54;62.28
37778;BME280;23615;51.506;7.678;2023-07-09T09:52:45;100222.78;;;30.54;59.64
37778;BME280;23615;51.506;7.678;2023-07-09T09:55:20;100220.16;;;30.73;61.33
37778;BME280;23615;51.506;7.678;2023-07-09T09:57:49;100226.56;;;30.77;62.16
37778;BME280;23615;51.506;7.678;2023-07-09T10:00:15;100219.44;;;30.76;58.29
37778;BME280;23615;51.506;7.678;2023-07-09T10:02:41;100225.66;;;30.88;57.69
37778;BME280;23615;51.506;7.678;2023-07-09T10:05:29;100217.78;;;31.03;57.79
37778;BME280;23615;51.506;7.678;2023-07-09T10:08:09;100216.19;;;31.17;59.66
37778;BME280;23615;51.506;7.678;2023-07-09T10:10:40;100223.47;;;31.26;58.42
37778;BME280;23615;51.506;7.678;2023-07-09T10:13:19;100221.41;;;31.38;58.09
37778;BME280;23615;51.506;7.678;2023-07-09T10:21:46;100216.50;;;31.63;56.36
37778;BME280;23615;51.506;7.678;2023-07-09T10:24:25;100217.38;;;31.67;57.25
37778;BME280;23615;51.506;7.678;2023-07-09T10:27:13;100216.97;;;31.84;55.86
37778;BME280;23615;51.506;7.678;2023-07-09T10:29:54;100214.84;;;31.97;54.61
37778;BME280;23615;51.506;7.678;2023-07-09T10:32:32;100213.25;;;31.96;52.96
37778;BME280;23615;51.506;7.678;2023-07-09T10:35:07;100217.06;;;32.26;52.56
37778;BME280;23615;51.506;7.678;2023-07-09T10:37:50;100207.25;;;32.29;55.55
37778;BME280;23615;51.506;7.678;2023-07-09T10:40:27;100210.75;;;32.26;55.41
37778;BME280;23615;51.506;7.678;2023-07-09T10:42:58;100194.31;;;32.33;57.10
37778;BME280;23615;51.506;7.678;2023-07-09T10:45:31;100196.38;;;32.59;51.92
37778;BME280;23615;51.506;7.678;2023-07-09T10:48:02;100191.81;;;32.47;52.56
37778;BME280;23615;51.506;7.678;2023-07-09T10:50:41;100182.41;;;32.52;53.28
37778;BME280;23615;51.506;7.678;2023-07-09T10:53:18;100175.09;;;32.59;54.40
37778;BME280;23615;51.506;7.678;2023-07-09T10:56:11;100174.53;;;32.73;52.81
37778;BME280;23615;51.506;7.678;2023-07-09T10:58:43;100177.19;;;32.89;53.16
37778;BME280;23615;51.506;7.678;2023-07-09T11:01:13;100177.25;;;32.92;52.25
37778;BME280;23615;51.506;7.678;2023-07-09T11:03:45;100176.22;;;32.78;51.85
37778;BME280;23615;51.506;7.678;2023-07-09T11:06:28;100179.03;;;32.81;51.97
37778;BME280;23615;51.506;7.678;2023-07-09T11:08:56;100177.25;;;32.92;52.50
37778;BME280;23615;51.506;7.678;2023-07-09T11:11:35;100184.59;;;33.07;53.99
37778;BME280;23615;51.506;7.678;2023-07-09T11:14:23;100180.03;;;33.19;53.70
37778;BME280;23615;51.506;7.678;2023-07-09T11:16:53;100175.00;;;33.24;52.53
37778;BME280;23615;51.506;7.678;2023-07-09T11:19:20;100165.91;;;33.24;52.04
37778;BME280;23615;51.506;7.678;2023-07-09T11:22:06;100165.91;;;33.24;52.10
37778;BME280;23615;51.506;7.678;2023-07-09T11:24:47;100165.38;;;33.41;52.34
37778;BME280;23615;51.506;7.678;2023-07-09T11:27:24;100168.28;;;33.52;53.64
37778;BME280;23615;51.506;7.678;2023-07-09T11:30:16;100164.50;;;33.63;53.10
37778;BME280;23615;51.506;7.678;2023-07-09T11:32:47;100171.00;;;33.74;54.94
37778;BME280;23615;51.506;7.678;2023-07-09T11:35:24;100159.22;;;33.81;53.21
37778;BME280;23615;51.506;7.678;2023-07-09T11:37:51;100149.28;;;33.76;51.34
37778;BME280;23615;51.506;7.678;2023-07-09T11:40:19;100143.47;;;33.89;51.73
37778;BME280;23615;51.506;7.678;2023-07-09T11:42:55;100148.78;;;34.01;52.57
37778;BME280;23615;51.506;7.678;2023-07-09T11:45:27;100153.22;;;34.09;52.86
37778;BME280;23615;51.506;7.678;2023-07-09T11:48:27;100143.38;;;34.15;52.09
37778;BME280;23615;51.506;7.678;2023-07-09T11:50:55;100144.31;;;34.26;53.66
37778;BME280;23615;51.506;7.678;2023-07-09T11:55:53;100135.44;;;34.47;53.91
37778;BME280;23615;51.506;7.678;2023-07-09T11:58:18;100131.13;;;34.53;53.58
37778;BME280;23615;51.506;7.678;2023-07-09T12:00:49;100131.16;;;34.57;53.54
37778;BME280;23615;51.506;7.678;2023-07-09T12:03:27;100128.81;;;34.59;53.09
37778;BME280;23615;51.506;7.678;2023-07-09T12:05:59;100120.88;;;34.61;53.04
37778;BME280;23615;51.506;7.678;2023-07-09T12:08:45;100109.88;;;34.71;52.99
37778;BME280;23615;51.506;7.678;2023-07-09T12:11:24;100102.44;;;34.75;51.92
37778;BME280;23615;51.506;7.678;2023-07-09T12:13:51;100099.66;;;34.75;52.37
37778;BME280;23615;51.506;7.678;2023-07-09T12:16:31;100102.44;;;34.79;52.45
37778;BME280;23615;51.506;7.678;2023-07-09T12:18:57;100094.16;;;34.82;51.79
37778;BME280;23615;51.506;7.678;2023-07-09T12:21:24;100089.84;;;34.85;51.37
37778;BME280;23615;51.506;7.678;2023-07-09T12:23:51;100090.69;;;34.93;47.72
37778;BME280;23615;51.506;7.678;2023-07-09T12:26:19;100092.19;;;34.83;49.85
37778;BME280;23615;51.506;7.678;2023-07-09T12:28:52;100086.69;;;34.86;50.61
37778;BME280;23615;51.506;7.678;2023-07-09T12:31:18;100089.94;;;35.03;50.32
37778;BME280;23615;51.506;7.678;2023-07-09T12:33:52;100077.31;;;35.12;49.27
37778;BME280;23615;51.506;7.678;2023-07-09T12:36:19;100074.16;;;35.17;47.99
37778;BME280;23615;51.506;7.678;2023-07-09T12:39:04;100071.53;;;35.32;50.00
37778;BME280;23615;51.506;7.678;2023-07-09T12:41:39;100068.00;;;35.42;51.70
37778;BME280;23615;51.506;7.678;2023-07-09T12:44:05;100067.19;;;35.45;50.85
37778;BME280;23615;51.506;7.678;2023-07-09T12:46:34;100062.41;;;35.38;51.30
37778;BME280;23615;51.506;7.678;2023-07-09T12:49:00;100063.22;;;35.42;50.00
37778;BME280;23615;51.506;7.678;2023-07-09T12:51:29;100058.91;;;35.48;46.71
37778;BME280;23615;51.506;7.678;2023-07-09T12:54:11;100054.50;;;35.40;47.89
37778;BME280;23615;51.506;7.678;2023-07-09T12:56:38;100058.06;;;35.41;47.18
37778;BME280;23615;51.506;7.678;2023-07-09T12:59:16;100053.28;;;35.34;46.29
37778;BME280;23615;51.506;7.678;2023-07-09T13:01:41;100051.69;;;35.37;46.21
37778;BME280;23615;51.506;7.678;2023-07-09T13:04:11;100046.13;;;35.30;46.69
37778;BME280;23615;51.506;7.678;2023-07-09T13:06:38;100049.66;;;35.23;48.19
37778;BME280;23615;51.506;7.678;2023-07-09T13:09:13;100039.66;;;35.15;45.60
37778;BME280;23615;51.506;7.678;2023-07-09T13:11:40;100040.41;;;35.01;47.79
37778;BME280;23615;51.506;7.678;2023-07-09T13:14:17;100040.78;;;35.00;47.58